Royal, North Carolina
Current Conditions -  °F | °C
As of 11:54 PM on Sunday 21 Dec 2014 (Local Time) from KEWN Reporting Station
Light Rain Light Rain  
Wind Chill: 41°   Ceiling: 3700
Heat Index: 44°   Visibility: 6mi
Dew Point: 40°   Wind: 6mph
Humidity: 85%   Direction: 10°N
Pressure: 30.21"   Gusts: NA
Location:  35.2948°N, 76.7649°W
Report Text: KEWN 220454Z AUTO 01005KT 6SM -RA BR FEW022 BKN037 OVC080 07/04 A3021 RMK AO2 RAE02B22 SLP229 P0002 T00670044 401000022
Loading
Personal Weather Stations






























Interactive Weather Map New forecast layout! Learn more

10-Day Weather Forecast

Advertisements
Track Severe Weather on mobile